Time;durP1;ratioP1;P1;durP2;ratioP2;P2;SDS_P1;SDS_P2;PMS_P1;PMS_P2;Temp;Humidity;BMP_temperature;BMP_pressure;BME280_temperature;BME280_humidity;BME280_pressure;Samples;Min_cycle;Max_cycle;Signal;HPM_P1;HPM_P2
2023/04/25 00:01:45;;;;;;;0.80;0.80;;;;;;;;;;5073624;28;20124;-60
2023/04/25 00:04:11;;;;;;;0.90;0.90;;;;;;;;;;5073600;28;20060;-62
2023/04/25 00:06:37;;;;;;;0.70;0.70;;;;;;;;;;5073601;28;20082;-62
2023/04/25 00:09:03;;;;;;;2.42;1.05;;;;;;;;;;5073279;28;20382;-62
2023/04/25 00:11:30;;;;;;;1.50;0.90;;;;;;;;;;5073602;28;20063;-62
2023/04/25 00:13:57;;;;;;;1.55;1.00;;;;;;;;;;5073312;28;20451;-62
2023/04/25 00:16:23;;;;;;;1.08;0.98;;;;;;;;;;5073729;28;20120;-62
2023/04/25 00:18:51;;;;;;;1.02;0.90;;;;;;;;;;5073661;28;20111;-62
2023/04/25 00:21:17;;;;;;;0.80;0.80;;;;;;;;;;5055252;28;20386;-62
2023/04/25 00:23:43;;;;;;;1.15;0.73;;;;;;;;;;5075672;28;20381;-61
2023/04/25 00:26:08;;;;;;;1.10;1.00;;;;;;;;;;5076871;28;20092;-61
2023/04/25 00:28:34;;;;;;;0.90;0.90;;;;;;;;;;5076920;28;20489;-61
2023/04/25 00:30:59;;;;;;;0.80;0.80;;;;;;;;;;5076639;28;20055;-61
2023/04/25 00:33:24;;;;;;;1.02;0.93;;;;;;;;;;5076753;28;20064;-60
2023/04/25 00:35:50;;;;;;;1.13;1.02;;;;;;;;;;5076665;28;20036;-61
2023/04/25 00:38:15;;;;;;;1.30;1.20;;;;;;;;;;5076483;28;20025;-60
2023/04/25 00:40:43;;;;;;;1.02;1.02;;;;;;;;;;5058959;28;20430;-65
2023/04/25 00:43:08;;;;;;;1.30;1.20;;;;;;;;;;5076660;28;20025;-65
2023/04/25 00:45:36;;;;;;;1.08;1.08;;;;;;;;;;5076550;28;20062;-61
2023/04/25 00:48:03;;;;;;;1.17;1.08;;;;;;;;;;5058367;28;20038;-61
2023/04/25 00:50:28;;;;;;;1.00;0.98;;;;;;;;;;5076313;28;20013;-61
2023/04/25 00:52:54;;;;;;;1.27;1.10;;;;;;;;;;5058622;28;20477;-61
2023/04/25 00:55:19;;;;;;;1.27;1.20;;;;;;;;;;5076564;28;20059;-61
2023/04/25 00:57:45;;;;;;;1.88;1.30;;;;;;;;;;5058328;28;20128;-61
2023/04/25 01:00:10;;;;;;;1.40;1.30;;;;;;;;;;5076569;28;20032;-61
2023/04/25 01:02:36;;;;;;;2.05;1.20;;;;;;;;;;5076480;28;20024;-62
2023/04/25 01:05:02;;;;;;;1.25;1.25;;;;;;;;;;5076425;28;20073;-62
2023/04/25 01:07:27;;;;;;;1.40;1.30;;;;;;;;;;5058531;28;20024;-63
2023/04/25 01:09:53;;;;;;;1.63;1.25;;;;;;;;;;5076093;28;20356;-63
2023/04/25 01:12:18;;;;;;;1.60;1.50;;;;;;;;;;5058279;28;20386;-62
2023/04/25 01:14:44;;;;;;;1.08;1.08;;;;;;;;;;5075965;28;20099;-63
2023/04/25 01:17:09;;;;;;;1.60;1.50;;;;;;;;;;5076087;28;20340;-63
2023/04/25 01:19:35;;;;;;;1.52;1.42;;;;;;;;;;5075993;28;20032;-62
2023/04/25 01:22:01;;;;;;;1.10;1.00;;;;;;;;;;5076031;28;20029;-62
2023/04/25 01:24:26;;;;;;;1.58;1.48;;;;;;;;;;5057762;28;20043;-63
2023/04/25 01:26:53;;;;;;;1.33;1.30;;;;;;;;;;5057610;28;20039;-63
2023/04/25 01:29:22;;;;;;;1.85;1.17;;;;;;;;;;5041650;28;20058;-63
2023/04/25 01:31:48;;;;;;;1.38;1.13;;;;;;;;;;5058073;28;20518;-63
2023/04/25 01:34:14;;;;;;;1.40;1.30;;;;;;;;;;5040048;28;20025;-61
2023/04/25 01:36:40;;;;;;;2.35;1.20;;;;;;;;;;5075567;28;20026;-61
2023/04/25 01:39:05;;;;;;;1.27;1.17;;;;;;;;;;5057621;28;20044;-61
2023/04/25 01:41:31;;;;;;;1.10;1.10;;;;;;;;;;5057640;28;20029;-61
2023/04/25 01:43:56;;;;;;;1.50;1.40;;;;;;;;;;5057550;28;20120;-61
2023/04/25 01:46:22;;;;;;;1.65;1.25;;;;;;;;;;5040861;28;20115;-61
2023/04/25 01:48:48;;;;;;;1.50;1.40;;;;;;;;;;5057210;28;20023;-61
2023/04/25 01:51:13;;;;;;;1.65;1.60;;;;;;;;;;5057240;28;20025;-61
2023/04/25 01:53:39;;;;;;;1.80;1.70;;;;;;;;;;5074906;28;20069;-61
2023/04/25 01:56:05;;;;;;;2.15;1.98;;;;;;;;;;5057065;28;20532;-61
2023/04/25 01:58:33;;;;;;;2.03;1.92;;;;;;;;;;5057282;28;20470;-62
2023/04/25 02:01:07;;;;;;;2.42;2.33;;;;;;;;;;5057025;28;20509;-62
2023/04/25 02:03:40;;;;;;;2.65;2.55;;;;;;;;;;5056914;28;20563;-61
2023/04/25 02:06:10;;;;;;;2.30;2.20;;;;;;;;;;5057287;28;20036;-61
2023/04/25 02:08:39;;;;;;;2.60;2.40;;;;;;;;;;5057092;28;20386;-61
2023/04/25 02:11:05;;;;;;;2.67;2.47;;;;;;;;;;5056922;28;20032;-61
2023/04/25 02:13:38;;;;;;;2.45;2.25;;;;;;;;;;5057014;28;20108;-61
2023/04/25 02:16:33;;;;;;;2.72;2.53;;;;;;;;;;5020556;28;20424;-65
2023/04/25 02:19:00;;;;;;;2.42;2.33;;;;;;;;;;5040267;28;20056;-64
2023/04/25 02:21:26;;;;;;;2.65;2.38;;;;;;;;;;5039982;28;20128;-64
2023/04/25 02:23:51;;;;;;;2.42;2.33;;;;;;;;;;5074793;28;20035;-64
2023/04/25 02:26:17;;;;;;;2.47;2.38;;;;;;;;;;5056432;28;20028;-64
2023/04/25 02:28:42;;;;;;;3.78;2.35;;;;;;;;;;5056898;28;20391;-63
2023/04/25 02:31:08;;;;;;;2.40;2.20;;;;;;;;;;5056501;28;20009;-62
2023/04/25 02:33:34;;;;;;;2.30;2.10;;;;;;;;;;5056598;28;20459;-62
2023/04/25 02:36:02;;;;;;;2.50;2.30;;;;;;;;;;5056397;28;20070;-62
2023/04/25 02:38:27;;;;;;;2.78;2.58;;;;;;;;;;5056438;28;20447;-61
2023/04/25 02:40:53;;;;;;;2.50;2.40;;;;;;;;;;5074663;28;20031;-62
2023/04/25 02:43:18;;;;;;;2.80;2.60;;;;;;;;;;5056529;28;20028;-62
2023/04/25 02:45:44;;;;;;;2.67;2.40;;;;;;;;;;5073780;28;20493;-61
2023/04/25 02:48:10;;;;;;;3.10;2.90;;;;;;;;;;5074276;28;20024;-61
2023/04/25 02:50:36;;;;;;;3.03;2.85;;;;;;;;;;5056128;28;20029;-61
2023/04/25 02:53:01;;;;;;;2.97;2.65;;;;;;;;;;5056324;28;20502;-62
2023/04/25 02:55:33;;;;;;;2.97;2.78;;;;;;;;;;5056509;28;20165;-62
2023/04/25 02:58:00;;;;;;;2.75;2.65;;;;;;;;;;5056234;28;20028;-62
2023/04/25 03:00:38;;;;;;;3.75;3.40;;;;;;;;;;5041231;28;20375;-62
2023/04/25 03:03:03;;;;;;;4.05;3.65;;;;;;;;;;5056080;28;20032;-62
2023/04/25 03:05:29;;;;;;;3.47;3.17;;;;;;;;;;5056027;28;20467;-62
2023/04/25 03:07:54;;;;;;;3.35;2.78;;;;;;;;;;5073809;28;20024;-62
2023/04/25 03:10:20;;;;;;;3.58;3.38;;;;;;;;;;5073925;28;20028;-62
2023/04/25 03:12:46;;;;;;;3.28;3.08;;;;;;;;;;5055991;28;20025;-62
2023/04/25 03:15:11;;;;;;;4.25;3.88;;;;;;;;;;5055899;28;20028;-60
2023/04/25 03:17:36;;;;;;;3.42;3.05;;;;;;;;;;5039225;28;20032;-61
2023/04/25 03:20:03;;;;;;;3.60;3.40;;;;;;;;;;5056155;28;20032;-61
2023/04/25 03:22:30;;;;;;;3.35;3.03;;;;;;;;;;5055873;28;20033;-61
2023/04/25 03:24:55;;;;;;;3.28;3.03;;;;;;;;;;5073859;28;20036;-61
2023/04/25 03:27:21;;;;;;;3.22;2.95;;;;;;;;;;5055804;28;20540;-61
2023/04/25 03:29:46;;;;;;;3.15;2.95;;;;;;;;;;5056003;28;20028;-62
2023/04/25 03:32:12;;;;;;;2.95;2.75;;;;;;;;;;5056039;28;20037;-61
2023/04/25 03:34:37;;;;;;;3.40;3.20;;;;;;;;;;5055845;28;20463;-60
2023/04/25 03:37:03;;;;;;;2.78;2.63;;;;;;;;;;5055479;28;20173;-60
2023/04/25 03:39:33;;;;;;;3.00;2.80;;;;;;;;;;5055763;28;20036;-60
2023/04/25 03:41:58;;;;;;;3.03;2.83;;;;;;;;;;5055578;28;20498;-60
2023/04/25 03:44:24;;;;;;;3.17;2.97;;;;;;;;;;5056081;28;20024;-61
2023/04/25 03:46:50;;;;;;;3.40;3.20;;;;;;;;;;5055483;28;20420;-60
2023/04/25 03:49:15;;;;;;;3.78;3.47;;;;;;;;;;5055605;28;20029;-60
2023/04/25 03:52:01;;;;;;;3.33;3.13;;;;;;;;;;5055686;28;20024;-61
2023/04/25 03:54:30;;;;;;;3.40;3.10;;;;;;;;;;5055398;28;20028;-62
2023/04/25 03:57:04;;;;;;;3.45;3.15;;;;;;;;;;5051252;28;20052;-60
2023/04/25 03:59:32;;;;;;;3.38;2.78;;;;;;;;;;5056064;28;20065;-59
2023/04/25 04:01:58;;;;;;;2.85;2.65;;;;;;;;;;5055974;28;20056;-59
2023/04/25 04:04:23;;;;;;;3.03;2.83;;;;;;;;;;5039615;28;20455;-59
2023/04/25 04:06:49;;;;;;;4.57;2.97;;;;;;;;;;5039530;28;20029;-60
2023/04/25 04:09:20;;;;;;;2.72;2.53;;;;;;;;;;5056123;28;20071;-60
2023/04/25 04:11:46;;;;;;;2.58;2.47;;;;;;;;;;5056097;28;20029;-60
2023/04/25 04:14:11;;;;;;;2.60;2.40;;;;;;;;;;5057354;28;20036;-58
2023/04/25 04:16:40;;;;;;;2.30;2.17;;;;;;;;;;5049344;28;20029;-58
2023/04/25 04:19:06;;;;;;;2.90;1.80;;;;;;;;;;5035548;28;20094;-58
2023/04/25 04:21:33;;;;;;;3.45;2.05;;;;;;;;;;5035071;28;20030;-58
2023/04/25 04:23:59;;;;;;;1.77;1.67;;;;;;;;;;5036016;28;20485;-58
2023/04/25 04:26:27;;;;;;;3.10;2.00;;;;;;;;;;5035858;28;20056;-58
2023/04/25 04:29:03;;;;;;;1.90;1.80;;;;;;;;;;5036029;28;20425;-56
2023/04/25 04:31:42;;;;;;;1.98;1.88;;;;;;;;;;5036917;28;20033;-56
2023/04/25 04:34:09;;;;;;;1.42;1.33;;;;;;;;;;5036639;28;20052;-56
2023/04/25 04:36:34;;;;;;;2.40;1.50;;;;;;;;;;5036846;28;20025;-56
2023/04/25 04:39:00;;;;;;;1.88;1.35;;;;;;;;;;5035757;28;20096;-56
2023/04/25 04:41:36;;;;;;;1.25;1.15;;;;;;;;;;5035311;28;20033;-57
2023/04/25 04:44:12;;;;;;;1.35;1.30;;;;;;;;;;5036644;28;20387;-56
2023/04/25 04:46:58;;;;;;;2.10;1.35;;;;;;;;;;5025458;28;20127;-56
2023/04/25 04:49:44;;;;;;;1.38;1.27;;;;;;;;;;5036606;28;20112;-57
2023/04/25 04:52:32;;;;;;;1.67;1.30;;;;;;;;;;5027842;28;20060;-56
2023/04/25 04:55:15;;;;;;;1.40;1.30;;;;;;;;;;5035627;28;20033;-57
2023/04/25 04:58:03;;;;;;;1.02;1.02;;;;;;;;;;5027279;28;20474;-56
2023/04/25 05:00:38;;;;;;;1.95;1.27;;;;;;;;;;5034931;28;20030;-56
2023/04/25 05:03:38;;;;;;;4.10;1.38;;;;;;;;;;5020098;28;20048;-56
2023/04/25 05:06:23;;;;;;;1.50;1.38;;;;;;;;;;5035063;28;20160;-56
2023/04/25 05:09:11;;;;;;;1.10;1.10;;;;;;;;;;5035391;28;20040;-56
2023/04/25 05:11:46;;;;;;;1.40;1.30;;;;;;;;;;5035951;28;20353;-56
2023/04/25 05:14:50;;;;;;;3.05;1.15;;;;;;;;;;4974220;28;20023;-58
2023/04/25 05:17:36;;;;;;;1.08;1.08;;;;;;;;;;4958366;28;20030;-58
2023/04/25 05:20:28;;;;;;;1.65;1.30;;;;;;;;;;5021978;28;20045;-57
2023/04/25 05:22:53;;;;;;;1.00;1.00;;;;;;;;;;5035697;28;20042;-58
2023/04/25 05:25:29;;;;;;;2.22;1.05;;;;;;;;;;5035482;28;20384;-58
2023/04/25 05:28:13;;;;;;;1.55;1.42;;;;;;;;;;5034728;28;20087;-58
2023/04/25 05:30:39;;;;;;;2.08;1.50;;;;;;;;;;5034286;28;20527;-58
2023/04/25 05:33:15;;;;;;;1.50;1.40;;;;;;;;;;5016830;28;20383;-58
2023/04/25 05:35:41;;;;;;;1.58;1.17;;;;;;;;;;5033218;28;20033;-58
2023/04/25 05:38:06;;;;;;;2.90;1.75;;;;;;;;;;5033143;28;20036;-62
2023/04/25 05:40:57;;;;;;;1.88;1.55;;;;;;;;;;5035167;28;20038;-63
2023/04/25 05:43:44;;;;;;;3.13;1.73;;;;;;;;;;5033999;28;20029;-62
2023/04/25 05:46:20;;;;;;;2.40;1.42;;;;;;;;;;5035353;28;20175;-63
2023/04/25 05:49:08;;;;;;;1.50;1.45;;;;;;;;;;5035378;28;20025;-63
2023/04/25 05:51:42;;;;;;;1.88;1.77;;;;;;;;;;5034922;28;20033;-63
2023/04/25 05:54:26;;;;;;;1.60;1.50;;;;;;;;;;5035009;28;20120;-63
2023/04/25 05:56:53;;;;;;;2.03;1.63;;;;;;;;;;5036754;28;20106;-62
2023/04/25 05:59:19;;;;;;;2.65;1.80;;;;;;;;;;5036080;28;20032;-62
2023/04/25 06:01:46;;;;;;;1.88;1.70;;;;;;;;;;5036472;28;20491;-62
2023/04/25 06:04:11;;;;;;;1.95;1.67;;;;;;;;;;5037210;28;20079;-63
2023/04/25 06:06:37;;;;;;;2.20;1.60;;;;;;;;;;5035405;28;20486;-63
2023/04/25 06:09:03;;;;;;;1.80;1.70;;;;;;;;;;5035406;28;20375;-63
2023/04/25 06:11:30;;;;;;;2.00;1.90;;;;;;;;;;5036735;28;20467;-63
2023/04/25 06:13:55;;;;;;;2.03;1.90;;;;;;;;;;5036703;28;20021;-63
2023/04/25 06:16:21;;;;;;;2.03;1.70;;;;;;;;;;5036735;28;20114;-63
2023/04/25 06:18:46;;;;;;;2.75;2.20;;;;;;;;;;5036301;28;20024;-63
2023/04/25 06:21:12;;;;;;;2.10;2.00;;;;;;;;;;5051790;28;20036;-63
2023/04/25 06:23:37;;;;;;;1.90;1.70;;;;;;;;;;5034489;28;20112;-63
2023/04/25 06:26:05;;;;;;;2.10;1.98;;;;;;;;;;5034421;28;20483;-63
2023/04/25 06:28:32;;;;;;;2.28;2.08;;;;;;;;;;5034381;28;20111;-63
2023/04/25 06:30:58;;;;;;;2.10;2.00;;;;;;;;;;5017963;28;20112;-63
2023/04/25 06:33:24;;;;;;;2.80;2.10;;;;;;;;;;5052281;28;20025;-62
2023/04/25 06:35:50;;;;;;;2.40;2.30;;;;;;;;;;5036238;28;20036;-63
2023/04/25 06:38:20;;;;;;;2.60;2.38;;;;;;;;;;5036628;28;20025;-63
2023/04/25 06:40:49;;;;;;;3.13;2.17;;;;;;;;;;5036306;28;20051;-63
2023/04/25 06:43:16;;;;;;;2.35;2.03;;;;;;;;;;5036409;28;20045;-63
2023/04/25 06:45:55;;;;;;;2.40;2.20;;;;;;;;;;5036500;28;20115;-63
2023/04/25 06:48:22;;;;;;;6.10;2.03;;;;;;;;;;5019790;28;20501;-63
2023/04/25 06:50:47;;;;;;;2.42;2.22;;;;;;;;;;5036086;28;20021;-63
2023/04/25 06:53:13;;;;;;;2.30;2.20;;;;;;;;;;5036092;28;20471;-63
2023/04/25 06:55:40;;;;;;;2.50;2.40;;;;;;;;;;5036106;28;20040;-62
2023/04/25 06:58:16;;;;;;;2.88;2.67;;;;;;;;;;5035934;28;20521;-62
2023/04/25 07:00:50;;;;;;;2.72;2.60;;;;;;;;;;5053739;28;20372;-62
2023/04/25 07:03:16;;;;;;;2.72;2.50;;;;;;;;;;5036138;28;20029;-62
2023/04/25 07:05:42;;;;;;;2.38;2.22;;;;;;;;;;5035859;28;20036;-62
2023/04/25 07:08:07;;;;;;;2.60;2.40;;;;;;;;;;5053929;28;20038;-63
2023/04/25 07:10:33;;;;;;;2.72;2.53;;;;;;;;;;5054248;28;20069;-63
2023/04/25 07:12:59;;;;;;;2.05;1.95;;;;;;;;;;5035790;28;20112;-63
2023/04/25 07:15:24;;;;;;;2.28;2.10;;;;;;;;;;5036339;28;20029;-62
2023/04/25 07:17:50;;;;;;;2.67;2.53;;;;;;;;;;5036577;28;20029;-62
2023/04/25 07:20:16;;;;;;;2.00;1.90;;;;;;;;;;5035731;28;20039;-62
2023/04/25 07:22:41;;;;;;;2.10;2.00;;;;;;;;;;5035711;28;20123;-62
2023/04/25 07:25:08;;;;;;;2.13;2.00;;;;;;;;;;5036302;28;20020;-62
2023/04/25 07:27:34;;;;;;;2.25;2.08;;;;;;;;;;5035714;28;20048;-62
2023/04/25 07:30:05;;;;;;;2.10;2.00;;;;;;;;;;5035576;28;20537;-63
2023/04/25 07:32:30;;;;;;;2.22;2.13;;;;;;;;;;5037664;28;20029;-63
2023/04/25 07:34:56;;;;;;;1.90;1.80;;;;;;;;;;5039771;28;20031;-63
2023/04/25 07:37:21;;;;;;;2.03;1.92;;;;;;;;;;5039714;28;20078;-62
2023/04/25 07:40:16;;;;;;;2.58;2.30;;;;;;;;;;5047247;28;20033;-62
2023/04/25 07:42:48;;;;;;;2.55;2.03;;;;;;;;;;5039865;28;20032;-63
2023/04/25 07:45:18;;;;;;;2.00;1.90;;;;;;;;;;5039528;28;20033;-63
2023/04/25 07:47:44;;;;;;;2.70;2.50;;;;;;;;;;5040271;28;20341;-63
2023/04/25 07:50:10;;;;;;;2.22;2.10;;;;;;;;;;5039778;28;20363;-63
2023/04/25 07:52:37;;;;;;;2.20;2.10;;;;;;;;;;5023232;28;20051;-62
2023/04/25 07:55:25;;;;;;;2.40;2.15;;;;;;;;;;5039368;28;20052;-63
2023/04/25 07:57:59;;;;;;;2.17;2.08;;;;;;;;;;5057680;28;20072;-63
2023/04/25 08:00:28;;;;;;;2.42;2.33;;;;;;;;;;5039231;28;20029;-62
2023/04/25 08:03:09;;;;;;;2.40;2.30;;;;;;;;;;5039792;28;20471;-62
2023/04/25 08:05:35;;;;;;;2.38;2.22;;;;;;;;;;5039138;28;20475;-63
2023/04/25 08:08:06;;;;;;;2.30;2.05;;;;;;;;;;5039086;28;20025;-63
2023/04/25 08:10:32;;;;;;;2.63;2.42;;;;;;;;;;5039365;28;20029;-63
2023/04/25 08:12:58;;;;;;;2.28;2.08;;;;;;;;;;5039023;28;20025;-63
2023/04/25 08:15:23;;;;;;;2.70;2.50;;;;;;;;;;5022504;28;20513;-62
2023/04/25 08:17:48;;;;;;;2.20;2.10;;;;;;;;;;5038937;28;20025;-63
2023/04/25 08:20:14;;;;;;;2.33;2.13;;;;;;;;;;5039164;28;20029;-63
2023/04/25 08:22:40;;;;;;;2.72;2.20;;;;;;;;;;5039706;28;20082;-63
2023/04/25 08:25:25;;;;;;;2.38;2.17;;;;;;;;;;5056176;28;20087;-63
2023/04/25 08:27:51;;;;;;;4.03;2.78;;;;;;;;;;5038704;28;20036;-62
2023/04/25 08:30:19;;;;;;;2.90;2.70;;;;;;;;;;5039335;28;20017;-62
2023/04/25 08:32:45;;;;;;;2.75;2.00;;;;;;;;;;5038676;28;20025;-63
2023/04/25 08:35:33;;;;;;;1.77;1.67;;;;;;;;;;5048158;28;20071;-63
2023/04/25 08:38:00;;;;;;;2.20;1.98;;;;;;;;;;5023358;28;20036;-62
2023/04/25 08:40:29;;;;;;;2.20;2.10;;;;;;;;;;5038502;28;20032;-62
2023/04/25 08:43:03;;;;;;;2.20;2.00;;;;;;;;;;5038269;28;20025;-63
2023/04/25 08:45:30;;;;;;;1.95;1.80;;;;;;;;;;5056200;28;20040;-62
2023/04/25 08:47:57;;;;;;;2.50;2.30;;;;;;;;;;5038575;28;20021;-62
2023/04/25 08:50:22;;;;;;;2.53;2.33;;;;;;;;;;5038391;28;20071;-62
2023/04/25 08:52:52;;;;;;;2.53;2.33;;;;;;;;;;5038319;28;20028;-63
2023/04/25 08:55:18;;;;;;;2.38;2.22;;;;;;;;;;5038252;28;20025;-62
2023/04/25 08:57:44;;;;;;;2.25;2.05;;;;;;;;;;5034788;28;20052;-63
2023/04/25 09:00:11;;;;;;;2.17;2.08;;;;;;;;;;5034883;28;20021;-63
2023/04/25 09:02:39;;;;;;;2.45;2.35;;;;;;;;;;5034830;28;20516;-63
2023/04/25 09:05:06;;;;;;;2.22;2.13;;;;;;;;;;5034806;28;20112;-63
2023/04/25 09:07:32;;;;;;;2.97;2.42;;;;;;;;;;5034659;28;20132;-63
2023/04/25 09:09:59;;;;;;;2.60;2.40;;;;;;;;;;5018285;28;20044;-63
2023/04/25 09:12:25;;;;;;;3.05;2.85;;;;;;;;;;5035947;28;20025;-63
2023/04/25 09:15:07;;;;;;;2.63;2.42;;;;;;;;;;5034650;28;20029;-63
2023/04/25 09:17:54;;;;;;;2.60;2.40;;;;;;;;;;5035399;28;20030;-62
2023/04/25 09:20:20;;;;;;;2.80;2.50;;;;;;;;;;5034522;28;20030;-63
2023/04/25 09:22:45;;;;;;;2.50;2.40;;;;;;;;;;5034463;28;20014;-62
2023/04/25 09:25:12;;;;;;;2.10;2.00;;;;;;;;;;5034434;28;20472;-63
2023/04/25 09:27:52;;;;;;;2.67;2.47;;;;;;;;;;5034323;28;20083;-63
2023/04/25 09:30:30;;;;;;;2.15;2.00;;;;;;;;;;5034327;28;20120;-63
2023/04/25 09:33:27;;;;;;;2.80;2.60;;;;;;;;;;5032375;28;20064;-62
2023/04/25 09:35:55;;;;;;;2.45;2.25;;;;;;;;;;5034233;28;20052;-63
2023/04/25 09:38:41;;;;;;;2.22;2.03;;;;;;;;;;5035435;28;20053;-63
2023/04/25 09:41:12;;;;;;;2.50;2.40;;;;;;;;;;5034131;28;20040;-63
2023/04/25 09:43:44;;;;;;;2.20;2.10;;;;;;;;;;5034122;28;20114;-63
2023/04/25 09:46:11;;;;;;;1.85;1.75;;;;;;;;;;5033972;28;20439;-62
2023/04/25 09:48:39;;;;;;;1.70;1.60;;;;;;;;;;5034210;28;20053;-62
2023/04/25 09:51:05;;;;;;;2.60;1.88;;;;;;;;;;5033942;28;20064;-63
2023/04/25 09:53:31;;;;;;;2.35;2.05;;;;;;;;;;5035682;28;20026;-63
2023/04/25 09:56:13;;;;;;;2.08;1.95;;;;;;;;;;5040035;28;20049;-63
2023/04/25 09:58:41;;;;;;;2.00;1.90;;;;;;;;;;5037087;28;20025;-63
2023/04/25 10:01:09;;;;;;;1.77;1.67;;;;;;;;;;5037054;28;20029;-63
2023/04/25 10:03:45;;;;;;;2.13;1.85;;;;;;;;;;5055072;28;20028;-63
2023/04/25 10:06:22;;;;;;;2.20;2.05;;;;;;;;;;5037159;28;20036;-63
2023/04/25 10:08:50;;;;;;;1.77;1.67;;;;;;;;;;5054783;28;20479;-63
2023/04/25 10:11:16;;;;;;;2.75;1.77;;;;;;;;;;5054984;28;20017;-63
2023/04/25 10:13:42;;;;;;;2.25;1.83;;;;;;;;;;5054961;28;20032;-62
2023/04/25 10:16:07;;;;;;;1.77;1.60;;;;;;;;;;5054624;28;20024;-62
2023/04/25 10:18:33;;;;;;;1.60;1.50;;;;;;;;;;5054779;28;20460;-63
2023/04/25 10:21:00;;;;;;;2.03;1.92;;;;;;;;;;5055062;28;20025;-62
2023/04/25 10:23:25;;;;;;;1.70;1.60;;;;;;;;;;5054733;28;20119;-62
2023/04/25 10:25:52;;;;;;;3.63;1.70;;;;;;;;;;5054418;28;20115;-62
2023/04/25 10:28:18;;;;;;;1.45;1.35;;;;;;;;;;5054598;28;20368;-62
2023/04/25 10:31:16;;;;;;;2.47;1.77;;;;;;;;;;5054605;28;20100;-63
2023/04/25 10:33:42;;;;;;;1.60;1.50;;;;;;;;;;4999786;28;20398;-63
2023/04/25 10:36:24;;;;;;;2.33;2.13;;;;;;;;;;5054498;28;20033;-63
2023/04/25 10:38:54;;;;;;;1.60;1.50;;;;;;;;;;5054460;28;20059;-62
2023/04/25 10:41:20;;;;;;;1.58;1.48;;;;;;;;;;5054463;28;20017;-62
2023/04/25 10:43:58;;;;;;;1.92;1.83;;;;;;;;;;5054105;28;20040;-62
2023/04/25 10:46:28;;;;;;;2.97;1.88;;;;;;;;;;5054296;28;20032;-63
2023/04/25 10:48:55;;;;;;;1.40;1.15;;;;;;;;;;5036748;28;20063;-63
2023/04/25 10:51:21;;;;;;;9.30;1.80;;;;;;;;;;5054247;28;20045;-62
2023/04/25 10:53:55;;;;;;;1.95;1.85;;;;;;;;;;5054193;28;20044;-63
2023/04/25 10:56:21;;;;;;;1.85;1.75;;;;;;;;;;5033111;28;20492;-62
2023/04/25 10:58:50;;;;;;;4.63;2.97;;;;;;;;;;5033900;28;20029;-63
2023/04/25 11:01:20;;;;;;;3.28;2.38;;;;;;;;;;5034221;28;20525;-62
2023/04/25 11:03:47;;;;;;;1.95;1.85;;;;;;;;;;5062876;23;20075;-58
2023/04/25 11:06:18;;;;;;;2.78;1.50;;;;;;;;;;5095044;22;20057;-62
2023/04/25 11:08:49;;;;;;;2.40;1.80;;;;;;;;;;5095997;22;20052;-57
2023/04/25 11:11:16;;;;;;;1.35;1.30;;;;;;;;;;5095808;22;20060;-57
2023/04/25 11:13:41;;;;;;;2.78;1.80;;;;;;;;;;5095210;22;20065;-62
2023/04/25 11:16:07;;;;;;;1.67;1.58;;;;;;;;;;5085864;22;20041;-58
2023/04/25 11:18:34;;;;;;;1.80;1.70;;;;;;;;;;5084225;22;20049;-57
2023/04/25 11:20:59;;;;;;;1.50;1.38;;;;;;;;;;5073672;28;20036;-57
2023/04/25 11:23:26;;;;;;;1.63;1.50;;;;;;;;;;5073596;28;20078;-56
2023/04/25 11:25:52;;;;;;;1.45;1.33;;;;;;;;;;5073622;28;20459;-57
2023/04/25 11:28:21;;;;;;;1.17;1.17;;;;;;;;;;5073494;28;20032;-57
2023/04/25 11:30:52;;;;;;;1.42;1.33;;;;;;;;;;5073828;28;20086;-57
2023/04/25 11:33:17;;;;;;;1.70;1.60;;;;;;;;;;5073545;28;20033;-57
2023/04/25 11:35:43;;;;;;;1.70;1.60;;;;;;;;;;5073789;28;20025;-57
2023/04/25 11:38:08;;;;;;;1.58;1.40;;;;;;;;;;5073741;28;20030;-56
2023/04/25 11:40:35;;;;;;;1.55;1.45;;;;;;;;;;5055610;28;20417;-57
2023/04/25 11:43:01;;;;;;;1.45;1.20;;;;;;;;;;5073690;28;20032;-57
2023/04/25 11:45:26;;;;;;;1.88;1.13;;;;;;;;;;5073397;28;20024;-57
2023/04/25 11:47:52;;;;;;;1.60;1.08;;;;;;;;;;5073581;28;20485;-57
2023/04/25 11:50:17;;;;;;;1.15;1.02;;;;;;;;;;5073348;28;20029;-57
2023/04/25 11:52:44;;;;;;;1.30;1.20;;;;;;;;;;5073618;28;20033;-57
2023/04/25 11:55:12;;;;;;;1.33;1.23;;;;;;;;;;5073577;28;20028;-57
2023/04/25 11:57:38;;;;;;;1.33;1.20;;;;;;;;;;5038789;28;20489;-56
2023/04/25 12:00:08;;;;;;;0.98;0.95;;;;;;;;;;5073244;28;20036;-57
2023/04/25 12:02:40;;;;;;;1.27;1.17;;;;;;;;;;5055940;28;20036;-57
2023/04/25 12:05:08;;;;;;;1.55;1.20;;;;;;;;;;5073469;28;20037;-56
2023/04/25 12:07:33;;;;;;;1.42;1.20;;;;;;;;;;5073394;28;20040;-57
2023/04/25 12:09:59;;;;;;;1.50;1.17;;;;;;;;;;5056011;28;20025;-57
2023/04/25 12:12:27;;;;;;;1.30;1.20;;;;;;;;;;5073399;28;20033;-57
2023/04/25 12:14:55;;;;;;;1.55;1.30;;;;;;;;;;5073382;28;20024;-56
2023/04/25 12:17:20;;;;;;;2.35;1.25;;;;;;;;;;5055244;28;20068;-56
2023/04/25 12:19:47;;;;;;;1.33;1.23;;;;;;;;;;5057629;28;20482;-56
2023/04/25 12:22:20;;;;;;;1.48;1.38;;;;;;;;;;5077041;28;20390;-57
2023/04/25 12:24:45;;;;;;;1.80;1.33;;;;;;;;;;5076995;28;20182;-57
2023/04/25 12:27:15;;;;;;;1.08;1.08;;;;;;;;;;5076915;28;20031;-56
2023/04/25 12:29:49;;;;;;;1.77;1.25;;;;;;;;;;5076926;28;20505;-57
2023/04/25 12:32:15;;;;;;;1.35;1.30;;;;;;;;;;5076898;28;20455;-57
2023/04/25 12:34:40;;;;;;;2.40;1.00;;;;;;;;;;5076549;28;20028;-57
2023/04/25 12:37:06;;;;;;;1.92;1.63;;;;;;;;;;5076769;28;20028;-57
2023/04/25 12:39:31;;;;;;;2.67;1.80;;;;;;;;;;5077026;28;20066;-57
2023/04/25 12:41:56;;;;;;;3.90;1.80;;;;;;;;;;5059033;28;20060;-57
2023/04/25 12:44:21;;;;;;;2.38;1.60;;;;;;;;;;5076388;28;20021;-56
2023/04/25 12:46:47;;;;;;;1.73;1.63;;;;;;;;;;5076266;28;20051;-57
2023/04/25 12:49:13;;;;;;;2.05;1.40;;;;;;;;;;5076300;28;20416;-57
2023/04/25 12:51:39;;;;;;;1.65;1.15;;;;;;;;;;5058292;28;20023;-57
2023/04/25 12:54:05;;;;;;;1.50;1.40;;;;;;;;;;5076772;28;20028;-57
2023/04/25 12:56:31;;;;;;;1.60;1.50;;;;;;;;;;5076706;28;20020;-57
2023/04/25 12:58:57;;;;;;;1.42;1.30;;;;;;;;;;5076427;28;20073;-57
2023/04/25 13:01:23;;;;;;;2.45;1.45;;;;;;;;;;5076669;28;20106;-57
2023/04/25 13:03:48;;;;;;;3.65;2.40;;;;;;;;;;5076024;28;20374;-57
2023/04/25 13:06:14;;;;;;;2.17;1.23;;;;;;;;;;5076003;28;20482;-57
2023/04/25 13:08:41;;;;;;;1.27;1.17;;;;;;;;;;5076123;28;20112;-57
2023/04/25 13:11:06;;;;;;;1.65;1.40;;;;;;;;;;5075921;28;20032;-57
2023/04/25 13:13:32;;;;;;;2.65;1.30;;;;;;;;;;5075862;28;20458;-57
2023/04/25 13:15:57;;;;;;;2.70;1.48;;;;;;;;;;5076353;28;20029;-57
2023/04/25 13:18:26;;;;;;;1.27;1.17;;;;;;;;;;5075581;28;20048;-57
2023/04/25 13:20:52;;;;;;;1.85;1.42;;;;;;;;;;5075699;28;20036;-57
2023/04/25 13:23:17;;;;;;;3.97;1.45;;;;;;;;;;5074601;28;20063;-57
2023/04/25 13:25:43;;;;;;;1.60;1.45;;;;;;;;;;5057385;28;20026;-57
2023/04/25 13:28:08;;;;;;;2.38;1.25;;;;;;;;;;5075117;28;20032;-57
2023/04/25 13:30:33;;;;;;;1.90;1.80;;;;;;;;;;5075001;28;20025;-57
2023/04/25 13:33:02;;;;;;;2.30;1.65;;;;;;;;;;5075107;28;20464;-57
2023/04/25 13:35:28;;;;;;;1.73;1.60;;;;;;;;;;5075256;28;20021;-57
2023/04/25 13:37:53;;;;;;;2.67;1.88;;;;;;;;;;5065711;28;20535;-57
2023/04/25 13:40:18;;;;;;;2.35;1.75;;;;;;;;;;5072149;28;20478;-57
2023/04/25 13:42:45;;;;;;;2.15;1.70;;;;;;;;;;5037373;28;20040;-57
2023/04/25 13:45:10;;;;;;;1.08;1.02;;;;;;;;;;5072036;28;20086;-57
2023/04/25 13:47:36;;;;;;;2.50;1.45;;;;;;;;;;5071139;28;20040;-57
2023/04/25 13:50:02;;;;;;;2.05;1.67;;;;;;;;;;5071377;28;20012;-57
2023/04/25 13:52:28;;;;;;;1.50;1.40;;;;;;;;;;5070869;28;20031;-57
2023/04/25 13:54:53;;;;;;;1.27;1.25;;;;;;;;;;5053119;28;20398;-57
2023/04/25 13:57:19;;;;;;;1.58;1.48;;;;;;;;;;5070511;28;20043;-57
2023/04/25 13:59:46;;;;;;;2.40;1.50;;;;;;;;;;5071679;28;20387;-57
2023/04/25 14:02:11;;;;;;;1.63;1.45;;;;;;;;;;5071628;28;20107;-56
2023/04/25 14:04:37;;;;;;;1.67;1.50;;;;;;;;;;5071869;28;20540;-57
2023/04/25 14:07:02;;;;;;;2.40;1.65;;;;;;;;;;5071223;28;20032;-57
2023/04/25 14:09:28;;;;;;;1.58;1.48;;;;;;;;;;5071626;28;20027;-55
2023/04/25 14:11:54;;;;;;;1.85;1.70;;;;;;;;;;5053588;28;20447;-56
2023/04/25 14:14:21;;;;;;;1.67;1.55;;;;;;;;;;5071540;28;20033;-56
2023/04/25 14:16:48;;;;;;;1.92;1.73;;;;;;;;;;5058987;28;20028;-56
2023/04/25 14:19:13;;;;;;;2.05;1.50;;;;;;;;;;5050921;28;20041;-56
2023/04/25 14:21:39;;;;;;;2.78;1.75;;;;;;;;;;5050641;28;20135;-56
2023/04/25 14:24:04;;;;;;;2.58;2.17;;;;;;;;;;5033849;28;20482;-56
2023/04/25 14:26:30;;;;;;;2.30;1.88;;;;;;;;;;5050663;28;20028;-56
2023/04/25 14:28:55;;;;;;;2.13;1.55;;;;;;;;;;5050244;28;20037;-56
2023/04/25 14:31:21;;;;;;;1.77;1.67;;;;;;;;;;5033138;28;20039;-56
2023/04/25 14:33:46;;;;;;;1.75;1.65;;;;;;;;;;5050601;28;20035;-56
2023/04/25 14:36:12;;;;;;;2.30;1.80;;;;;;;;;;5050701;28;20025;-56
2023/04/25 14:38:37;;;;;;;2.50;2.10;;;;;;;;;;5050404;28;20059;-56
2023/04/25 14:41:03;;;;;;;1.55;1.45;;;;;;;;;;5049838;28;20061;-56
2023/04/25 14:43:28;;;;;;;5.55;3.45;;;;;;;;;;5059070;28;20044;-56
2023/04/25 14:45:53;;;;;;;6.40;3.38;;;;;;;;;;5070767;28;20113;-57
2023/04/25 14:48:19;;;;;;;3.13;2.38;;;;;;;;;;5070728;28;20040;-56
2023/04/25 14:50:45;;;;;;;1.75;1.65;;;;;;;;;;5070935;28;20056;-57
2023/04/25 14:53:10;;;;;;;1.98;1.63;;;;;;;;;;5070674;28;20112;-57